sensor_id;sensor_type;location;lat;lon;timestamp;P1;durP1;ratioP1;P2;durP2;ratioP2
55417;SDS011;41287;47.554;7.844;2022-07-23T00:01:15;6.05;;;4.20;;
55417;SDS011;41287;47.554;7.844;2022-07-23T00:03:41;7.03;;;4.78;;
55417;SDS011;41287;47.554;7.844;2022-07-23T00:06:06;6.28;;;4.72;;
55417;SDS011;41287;47.554;7.844;2022-07-23T00:08:31;6.05;;;4.45;;
55417;SDS011;41287;47.554;7.844;2022-07-23T00:10:57;6.35;;;4.90;;
55417;SDS011;41287;47.554;7.844;2022-07-23T00:13:22;5.68;;;4.20;;
55417;SDS011;41287;47.554;7.844;2022-07-23T00:15:48;7.43;;;4.90;;
55417;SDS011;41287;47.554;7.844;2022-07-23T00:18:13;7.45;;;5.05;;
55417;SDS011;41287;47.554;7.844;2022-07-23T00:20:39;5.55;;;4.13;;
55417;SDS011;41287;47.554;7.844;2022-07-23T00:23:04;6.65;;;4.72;;
55417;SDS011;41287;47.554;7.844;2022-07-23T00:25:29;5.90;;;4.65;;
55417;SDS011;41287;47.554;7.844;2022-07-23T00:27:55;6.50;;;4.68;;
55417;SDS011;41287;47.554;7.844;2022-07-23T00:30:20;8.13;;;5.00;;
55417;SDS011;41287;47.554;7.844;2022-07-23T00:32:50;6.03;;;4.47;;
55417;SDS011;41287;47.554;7.844;2022-07-23T00:35:19;6.50;;;4.72;;
55417;SDS011;41287;47.554;7.844;2022-07-23T00:37:45;6.43;;;4.70;;
55417;SDS011;41287;47.554;7.844;2022-07-23T00:40:11;6.78;;;4.82;;
55417;SDS011;41287;47.554;7.844;2022-07-23T00:42:36;6.97;;;4.88;;
55417;SDS011;41287;47.554;7.844;2022-07-23T00:45:04;6.10;;;4.38;;
55417;SDS011;41287;47.554;7.844;2022-07-23T00:47:30;6.97;;;4.85;;
55417;SDS011;41287;47.554;7.844;2022-07-23T00:49:55;6.40;;;4.72;;
55417;SDS011;41287;47.554;7.844;2022-07-23T00:52:21;8.35;;;4.75;;
55417;SDS011;41287;47.554;7.844;2022-07-23T00:54:47;5.65;;;4.20;;
55417;SDS011;41287;47.554;7.844;2022-07-23T00:57:13;6.47;;;4.72;;
55417;SDS011;41287;47.554;7.844;2022-07-23T00:59:39;6.47;;;4.57;;
55417;SDS011;41287;47.554;7.844;2022-07-23T01:02:04;7.10;;;5.00;;
55417;SDS011;41287;47.554;7.844;2022-07-23T01:04:30;5.72;;;4.57;;
55417;SDS011;41287;47.554;7.844;2022-07-23T01:06:55;5.53;;;4.50;;
55417;SDS011;41287;47.554;7.844;2022-07-23T01:09:21;6.05;;;4.57;;
55417;SDS011;41287;47.554;7.844;2022-07-23T01:11:46;6.63;;;4.40;;
55417;SDS011;41287;47.554;7.844;2022-07-23T01:14:15;6.18;;;4.28;;
55417;SDS011;41287;47.554;7.844;2022-07-23T01:16:42;6.13;;;4.63;;
55417;SDS011;41287;47.554;7.844;2022-07-23T01:19:09;5.78;;;4.20;;
55417;SDS011;41287;47.554;7.844;2022-07-23T01:21:53;6.10;;;4.53;;
55417;SDS011;41287;47.554;7.844;2022-07-23T01:24:21;6.55;;;4.57;;
55417;SDS011;41287;47.554;7.844;2022-07-23T01:26:47;6.55;;;4.65;;
55417;SDS011;41287;47.554;7.844;2022-07-23T01:29:13;6.28;;;4.70;;
55417;SDS011;41287;47.554;7.844;2022-07-23T01:31:39;5.88;;;4.32;;
55417;SDS011;41287;47.554;7.844;2022-07-23T01:34:05;5.72;;;4.15;;
55417;SDS011;41287;47.554;7.844;2022-07-23T01:36:32;6.20;;;4.60;;
55417;SDS011;41287;47.554;7.844;2022-07-23T01:39:00;5.70;;;4.22;;
55417;SDS011;41287;47.554;7.844;2022-07-23T01:41:25;6.22;;;4.18;;
55417;SDS011;41287;47.554;7.844;2022-07-23T01:43:51;6.13;;;4.65;;
55417;SDS011;41287;47.554;7.844;2022-07-23T01:46:16;5.95;;;4.43;;
55417;SDS011;41287;47.554;7.844;2022-07-23T01:48:41;7.70;;;4.90;;
55417;SDS011;41287;47.554;7.844;2022-07-23T01:51:10;5.63;;;4.40;;
55417;SDS011;41287;47.554;7.844;2022-07-23T01:53:36;5.90;;;4.28;;
55417;SDS011;41287;47.554;7.844;2022-07-23T01:56:01;6.03;;;4.63;;
55417;SDS011;41287;47.554;7.844;2022-07-23T01:58:28;6.05;;;4.40;;
55417;SDS011;41287;47.554;7.844;2022-07-23T02:00:54;6.53;;;4.32;;
55417;SDS011;41287;47.554;7.844;2022-07-23T02:03:20;5.57;;;4.25;;
55417;SDS011;41287;47.554;7.844;2022-07-23T02:05:46;7.07;;;4.60;;
55417;SDS011;41287;47.554;7.844;2022-07-23T02:08:11;7.13;;;4.55;;
55417;SDS011;41287;47.554;7.844;2022-07-23T02:10:37;7.47;;;5.13;;
55417;SDS011;41287;47.554;7.844;2022-07-23T02:13:02;6.93;;;4.40;;
55417;SDS011;41287;47.554;7.844;2022-07-23T02:15:28;5.82;;;4.50;;
55417;SDS011;41287;47.554;7.844;2022-07-23T02:17:53;6.63;;;4.35;;
55417;SDS011;41287;47.554;7.844;2022-07-23T02:20:19;6.90;;;4.80;;
55417;SDS011;41287;47.554;7.844;2022-07-23T02:22:45;6.15;;;4.47;;
55417;SDS011;41287;47.554;7.844;2022-07-23T02:25:10;6.18;;;4.68;;
55417;SDS011;41287;47.554;7.844;2022-07-23T02:27:36;6.80;;;4.78;;
55417;SDS011;41287;47.554;7.844;2022-07-23T02:30:02;6.82;;;4.60;;
55417;SDS011;41287;47.554;7.844;2022-07-23T02:32:28;7.38;;;4.80;;
55417;SDS011;41287;47.554;7.844;2022-07-23T02:34:53;7.03;;;4.82;;
55417;SDS011;41287;47.554;7.844;2022-07-23T02:37:21;6.63;;;4.50;;
55417;SDS011;41287;47.554;7.844;2022-07-23T02:39:46;5.20;;;4.25;;
55417;SDS011;41287;47.554;7.844;2022-07-23T02:42:13;6.35;;;4.40;;
55417;SDS011;41287;47.554;7.844;2022-07-23T02:44:39;6.15;;;4.47;;
55417;SDS011;41287;47.554;7.844;2022-07-23T02:47:04;6.70;;;4.75;;
55417;SDS011;41287;47.554;7.844;2022-07-23T02:49:30;5.88;;;4.72;;
55417;SDS011;41287;47.554;7.844;2022-07-23T02:51:55;6.00;;;4.43;;
55417;SDS011;41287;47.554;7.844;2022-07-23T02:54:21;6.47;;;4.72;;
55417;SDS011;41287;47.554;7.844;2022-07-23T02:56:46;5.07;;;3.92;;
55417;SDS011;41287;47.554;7.844;2022-07-23T02:59:11;5.72;;;4.28;;
55417;SDS011;41287;47.554;7.844;2022-07-23T03:01:40;5.50;;;4.28;;
55417;SDS011;41287;47.554;7.844;2022-07-23T03:04:05;5.88;;;4.07;;
55417;SDS011;41287;47.554;7.844;2022-07-23T03:06:31;4.88;;;3.80;;
55417;SDS011;41287;47.554;7.844;2022-07-23T03:08:56;7.18;;;4.95;;
55417;SDS011;41287;47.554;7.844;2022-07-23T03:11:21;6.43;;;4.70;;
55417;SDS011;41287;47.554;7.844;2022-07-23T03:13:47;6.95;;;4.32;;
55417;SDS011;41287;47.554;7.844;2022-07-23T03:16:12;7.07;;;4.90;;
55417;SDS011;41287;47.554;7.844;2022-07-23T03:18:37;6.13;;;4.28;;
55417;SDS011;41287;47.554;7.844;2022-07-23T03:21:03;5.72;;;4.30;;
55417;SDS011;41287;47.554;7.844;2022-07-23T03:23:30;6.22;;;4.55;;
55417;SDS011;41287;47.554;7.844;2022-07-23T03:25:56;5.55;;;4.25;;
55417;SDS011;41287;47.554;7.844;2022-07-23T03:28:23;6.50;;;4.70;;
55417;SDS011;41287;47.554;7.844;2022-07-23T03:30:49;6.03;;;4.30;;
55417;SDS011;41287;47.554;7.844;2022-07-23T03:33:15;5.63;;;4.05;;
55417;SDS011;41287;47.554;7.844;2022-07-23T03:35:42;5.40;;;4.30;;
55417;SDS011;41287;47.554;7.844;2022-07-23T03:38:07;5.68;;;4.10;;
55417;SDS011;41287;47.554;7.844;2022-07-23T03:40:33;6.00;;;4.50;;
55417;SDS011;41287;47.554;7.844;2022-07-23T03:42:58;6.00;;;4.38;;
55417;SDS011;41287;47.554;7.844;2022-07-23T03:45:23;5.82;;;4.00;;
55417;SDS011;41287;47.554;7.844;2022-07-23T03:47:49;6.18;;;4.28;;
55417;SDS011;41287;47.554;7.844;2022-07-23T03:50:16;6.75;;;4.57;;
55417;SDS011;41287;47.554;7.844;2022-07-23T03:52:42;6.28;;;4.72;;
55417;SDS011;41287;47.554;7.844;2022-07-23T03:55:07;6.47;;;4.63;;
55417;SDS011;41287;47.554;7.844;2022-07-23T03:57:33;7.10;;;5.13;;
55417;SDS011;41287;47.554;7.844;2022-07-23T03:59:58;5.40;;;4.00;;
55417;SDS011;41287;47.554;7.844;2022-07-23T04:02:24;5.80;;;3.90;;
55417;SDS011;41287;47.554;7.844;2022-07-23T04:04:49;5.22;;;3.92;;
55417;SDS011;41287;47.554;7.844;2022-07-23T04:07:15;5.47;;;4.13;;
55417;SDS011;41287;47.554;7.844;2022-07-23T04:09:42;6.32;;;4.53;;
55417;SDS011;41287;47.554;7.844;2022-07-23T04:12:08;5.55;;;3.85;;
55417;SDS011;41287;47.554;7.844;2022-07-23T04:14:38;4.80;;;3.80;;
55417;SDS011;41287;47.554;7.844;2022-07-23T04:17:03;5.82;;;4.60;;
55417;SDS011;41287;47.554;7.844;2022-07-23T04:19:28;5.90;;;4.38;;
55417;SDS011;41287;47.554;7.844;2022-07-23T04:21:56;6.07;;;4.43;;
55417;SDS011;41287;47.554;7.844;2022-07-23T04:24:22;5.43;;;4.05;;
55417;SDS011;41287;47.554;7.844;2022-07-23T04:26:47;6.82;;;4.53;;
55417;SDS011;41287;47.554;7.844;2022-07-23T04:29:13;5.78;;;4.45;;
55417;SDS011;41287;47.554;7.844;2022-07-23T04:31:40;6.05;;;4.45;;
55417;SDS011;41287;47.554;7.844;2022-07-23T04:34:06;6.13;;;4.68;;
55417;SDS011;41287;47.554;7.844;2022-07-23T04:36:31;5.47;;;4.18;;
55417;SDS011;41287;47.554;7.844;2022-07-23T04:38:56;7.32;;;4.50;;
55417;SDS011;41287;47.554;7.844;2022-07-23T04:41:22;5.15;;;4.05;;
55417;SDS011;41287;47.554;7.844;2022-07-23T04:43:49;5.88;;;4.32;;
55417;SDS011;41287;47.554;7.844;2022-07-23T04:46:15;5.97;;;4.32;;
55417;SDS011;41287;47.554;7.844;2022-07-23T04:48:40;7.53;;;4.55;;
55417;SDS011;41287;47.554;7.844;2022-07-23T04:51:07;6.50;;;4.43;;
55417;SDS011;41287;47.554;7.844;2022-07-23T04:53:32;6.40;;;4.80;;
55417;SDS011;41287;47.554;7.844;2022-07-23T04:55:57;5.63;;;4.25;;
55417;SDS011;41287;47.554;7.844;2022-07-23T04:58:23;6.72;;;4.22;;
55417;SDS011;41287;47.554;7.844;2022-07-23T05:00:48;6.13;;;4.60;;
55417;SDS011;41287;47.554;7.844;2022-07-23T05:03:16;5.72;;;4.32;;
55417;SDS011;41287;47.554;7.844;2022-07-23T05:05:42;5.93;;;4.25;;
55417;SDS011;41287;47.554;7.844;2022-07-23T05:08:07;6.15;;;4.45;;
55417;SDS011;41287;47.554;7.844;2022-07-23T05:10:33;5.80;;;4.35;;
55417;SDS011;41287;47.554;7.844;2022-07-23T05:12:58;6.00;;;4.32;;
55417;SDS011;41287;47.554;7.844;2022-07-23T05:15:26;6.07;;;4.15;;
55417;SDS011;41287;47.554;7.844;2022-07-23T05:17:51;5.43;;;4.07;;
55417;SDS011;41287;47.554;7.844;2022-07-23T05:20:16;6.78;;;4.50;;
55417;SDS011;41287;47.554;7.844;2022-07-23T05:22:42;6.13;;;4.13;;
55417;SDS011;41287;47.554;7.844;2022-07-23T05:25:09;6.53;;;4.47;;
55417;SDS011;41287;47.554;7.844;2022-07-23T05:27:35;5.72;;;4.20;;
55417;SDS011;41287;47.554;7.844;2022-07-23T05:30:00;5.85;;;3.97;;
55417;SDS011;41287;47.554;7.844;2022-07-23T05:32:26;6.82;;;4.90;;
55417;SDS011;41287;47.554;7.844;2022-07-23T05:34:51;5.95;;;4.32;;
55417;SDS011;41287;47.554;7.844;2022-07-23T05:37:20;4.82;;;3.80;;
55417;SDS011;41287;47.554;7.844;2022-07-23T05:39:45;5.85;;;4.20;;
55417;SDS011;41287;47.554;7.844;2022-07-23T05:42:11;5.70;;;4.38;;
55417;SDS011;41287;47.554;7.844;2022-07-23T05:44:36;9.35;;;5.05;;
55417;SDS011;41287;47.554;7.844;2022-07-23T05:47:01;9.55;;;5.90;;
55417;SDS011;41287;47.554;7.844;2022-07-23T05:49:29;9.50;;;6.13;;
55417;SDS011;41287;47.554;7.844;2022-07-23T05:51:54;8.95;;;5.97;;
55417;SDS011;41287;47.554;7.844;2022-07-23T05:54:19;8.95;;;6.32;;
55417;SDS011;41287;47.554;7.844;2022-07-23T05:56:45;9.63;;;6.05;;
55417;SDS011;41287;47.554;7.844;2022-07-23T05:59:10;9.63;;;6.53;;
55417;SDS011;41287;47.554;7.844;2022-07-23T06:01:37;10.00;;;6.30;;
55417;SDS011;41287;47.554;7.844;2022-07-23T06:04:03;8.40;;;6.18;;
55417;SDS011;41287;47.554;7.844;2022-07-23T06:06:28;12.43;;;6.82;;
55417;SDS011;41287;47.554;7.844;2022-07-23T06:08:54;12.05;;;7.05;;
55417;SDS011;41287;47.554;7.844;2022-07-23T06:11:21;27.83;;;7.65;;
55417;SDS011;41287;47.554;7.844;2022-07-23T06:13:47;16.25;;;6.45;;
55417;SDS011;41287;47.554;7.844;2022-07-23T06:16:12;11.23;;;6.38;;
55417;SDS011;41287;47.554;7.844;2022-07-23T06:18:37;12.27;;;6.53;;
55417;SDS011;41287;47.554;7.844;2022-07-23T06:21:03;9.50;;;5.50;;
55417;SDS011;41287;47.554;7.844;2022-07-23T06:23:28;6.85;;;5.10;;
55417;SDS011;41287;47.554;7.844;2022-07-23T06:25:54;7.72;;;4.72;;
55417;SDS011;41287;47.554;7.844;2022-07-23T06:28:19;7.70;;;5.00;;
55417;SDS011;41287;47.554;7.844;2022-07-23T06:30:45;8.73;;;5.60;;
55417;SDS011;41287;47.554;7.844;2022-07-23T06:33:10;7.07;;;4.70;;
55417;SDS011;41287;47.554;7.844;2022-07-23T06:35:36;6.55;;;4.70;;
55417;SDS011;41287;47.554;7.844;2022-07-23T06:38:02;7.30;;;4.93;;
55417;SDS011;41287;47.554;7.844;2022-07-23T06:40:27;8.10;;;4.82;;
55417;SDS011;41287;47.554;7.844;2022-07-23T06:42:52;7.95;;;5.03;;
55417;SDS011;41287;47.554;7.844;2022-07-23T06:45:18;7.03;;;5.03;;
55417;SDS011;41287;47.554;7.844;2022-07-23T06:47:43;8.73;;;5.18;;
55417;SDS011;41287;47.554;7.844;2022-07-23T06:50:09;7.25;;;5.28;;
55417;SDS011;41287;47.554;7.844;2022-07-23T06:52:35;8.77;;;5.40;;
55417;SDS011;41287;47.554;7.844;2022-07-23T06:55:00;7.97;;;5.30;;
55417;SDS011;41287;47.554;7.844;2022-07-23T06:57:26;7.43;;;4.90;;
55417;SDS011;41287;47.554;7.844;2022-07-23T06:59:51;8.05;;;5.60;;
55417;SDS011;41287;47.554;7.844;2022-07-23T07:02:17;7.45;;;5.03;;
55417;SDS011;41287;47.554;7.844;2022-07-23T07:04:44;10.27;;;5.40;;
55417;SDS011;41287;47.554;7.844;2022-07-23T07:07:10;8.13;;;5.47;;
55417;SDS011;41287;47.554;7.844;2022-07-23T07:09:36;7.60;;;5.55;;
55417;SDS011;41287;47.554;7.844;2022-07-23T07:12:02;8.55;;;5.85;;
55417;SDS011;41287;47.554;7.844;2022-07-23T07:14:28;9.63;;;5.90;;
55417;SDS011;41287;47.554;7.844;2022-07-23T07:16:56;8.98;;;5.80;;
55417;SDS011;41287;47.554;7.844;2022-07-23T07:19:21;7.68;;;5.68;;
55417;SDS011;41287;47.554;7.844;2022-07-23T07:21:46;10.23;;;6.38;;
55417;SDS011;41287;47.554;7.844;2022-07-23T07:24:12;8.85;;;6.22;;
55417;SDS011;41287;47.554;7.844;2022-07-23T07:26:37;10.43;;;5.95;;
55417;SDS011;41287;47.554;7.844;2022-07-23T07:29:04;8.32;;;6.50;;
55417;SDS011;41287;47.554;7.844;2022-07-23T07:31:29;10.65;;;6.35;;
55417;SDS011;41287;47.554;7.844;2022-07-23T07:33:55;10.43;;;6.50;;
55417;SDS011;41287;47.554;7.844;2022-07-23T07:36:21;11.30;;;6.25;;
55417;SDS011;41287;47.554;7.844;2022-07-23T07:38:47;9.38;;;5.90;;
55417;SDS011;41287;47.554;7.844;2022-07-23T07:41:16;11.18;;;7.07;;
55417;SDS011;41287;47.554;7.844;2022-07-23T07:43:42;10.25;;;6.28;;
55417;SDS011;41287;47.554;7.844;2022-07-23T07:46:07;10.30;;;6.53;;
55417;SDS011;41287;47.554;7.844;2022-07-23T07:48:36;8.55;;;5.90;;
55417;SDS011;41287;47.554;7.844;2022-07-23T07:51:03;9.82;;;6.55;;
55417;SDS011;41287;47.554;7.844;2022-07-23T07:53:29;9.90;;;6.78;;
55417;SDS011;41287;47.554;7.844;2022-07-23T07:55:54;8.75;;;6.40;;
55417;SDS011;41287;47.554;7.844;2022-07-23T07:58:20;8.45;;;6.22;;
55417;SDS011;41287;47.554;7.844;2022-07-23T08:00:45;10.82;;;6.63;;
55417;SDS011;41287;47.554;7.844;2022-07-23T08:03:11;12.23;;;6.97;;
55417;SDS011;41287;47.554;7.844;2022-07-23T08:05:36;11.73;;;7.15;;
55417;SDS011;41287;47.554;7.844;2022-07-23T08:08:01;10.45;;;6.65;;
55417;SDS011;41287;47.554;7.844;2022-07-23T08:10:27;11.48;;;7.10;;
55417;SDS011;41287;47.554;7.844;2022-07-23T08:12:54;11.60;;;7.45;;
55417;SDS011;41287;47.554;7.844;2022-07-23T08:15:22;10.43;;;6.40;;
55417;SDS011;41287;47.554;7.844;2022-07-23T08:17:48;11.82;;;6.88;;
55417;SDS011;41287;47.554;7.844;2022-07-23T08:20:14;10.40;;;6.65;;
55417;SDS011;41287;47.554;7.844;2022-07-23T08:25:19;9.95;;;6.68;;
55417;SDS011;41287;47.554;7.844;2022-07-23T08:27:49;9.20;;;6.75;;
55417;SDS011;41287;47.554;7.844;2022-07-23T08:30:18;11.30;;;6.80;;
55417;SDS011;41287;47.554;7.844;2022-07-23T08:32:51;11.35;;;6.82;;
55417;SDS011;41287;47.554;7.844;2022-07-23T08:35:28;12.55;;;7.25;;
55417;SDS011;41287;47.554;7.844;2022-07-23T08:38:02;11.45;;;6.65;;
55417;SDS011;41287;47.554;7.844;2022-07-23T08:40:30;11.00;;;7.07;;
55417;SDS011;41287;47.554;7.844;2022-07-23T08:43:04;10.32;;;6.57;;
55417;SDS011;41287;47.554;7.844;2022-07-23T08:45:35;11.32;;;6.65;;
55417;SDS011;41287;47.554;7.844;2022-07-23T08:48:03;10.10;;;6.50;;
55417;SDS011;41287;47.554;7.844;2022-07-23T08:50:30;10.07;;;6.55;;
55417;SDS011;41287;47.554;7.844;2022-07-23T08:52:56;9.85;;;6.30;;
55417;SDS011;41287;47.554;7.844;2022-07-23T08:55:24;11.93;;;6.95;;
55417;SDS011;41287;47.554;7.844;2022-07-23T08:57:50;9.55;;;6.78;;
55417;SDS011;41287;47.554;7.844;2022-07-23T09:00:17;12.07;;;7.40;;
55417;SDS011;41287;47.554;7.844;2022-07-23T09:02:44;8.95;;;6.78;;
55417;SDS011;41287;47.554;7.844;2022-07-23T09:05:11;9.20;;;6.18;;
55417;SDS011;41287;47.554;7.844;2022-07-23T09:10:29;9.43;;;6.13;;
55417;SDS011;41287;47.554;7.844;2022-07-23T09:12:56;10.20;;;6.70;;
55417;SDS011;41287;47.554;7.844;2022-07-23T09:15:21;10.15;;;7.10;;
55417;SDS011;41287;47.554;7.844;2022-07-23T09:17:47;9.02;;;6.30;;
55417;SDS011;41287;47.554;7.844;2022-07-23T09:20:14;10.05;;;6.70;;
55417;SDS011;41287;47.554;7.844;2022-07-23T09:22:47;9.50;;;6.70;;
55417;SDS011;41287;47.554;7.844;2022-07-23T09:25:15;9.82;;;7.25;;
55417;SDS011;41287;47.554;7.844;2022-07-23T09:30:13;10.38;;;6.35;;
55417;SDS011;41287;47.554;7.844;2022-07-23T09:32:39;9.52;;;5.85;;
55417;SDS011;41287;47.554;7.844;2022-07-23T09:35:05;11.52;;;7.07;;
55417;SDS011;41287;47.554;7.844;2022-07-23T09:37:31;9.70;;;6.45;;
55417;SDS011;41287;47.554;7.844;2022-07-23T09:40:06;9.98;;;6.78;;
55417;SDS011;41287;47.554;7.844;2022-07-23T09:42:34;10.57;;;6.85;;
55417;SDS011;41287;47.554;7.844;2022-07-23T09:44:59;9.75;;;6.68;;
55417;SDS011;41287;47.554;7.844;2022-07-23T09:47:27;10.55;;;6.55;;
55417;SDS011;41287;47.554;7.844;2022-07-23T09:49:57;10.20;;;6.55;;
55417;SDS011;41287;47.554;7.844;2022-07-23T09:52:48;8.68;;;6.45;;
55417;SDS011;41287;47.554;7.844;2022-07-23T09:55:14;10.60;;;6.45;;
55417;SDS011;41287;47.554;7.844;2022-07-23T09:57:43;8.32;;;6.15;;
55417;SDS011;41287;47.554;7.844;2022-07-23T10:00:10;10.15;;;6.22;;
55417;SDS011;41287;47.554;7.844;2022-07-23T10:02:36;8.82;;;6.63;;
55417;SDS011;41287;47.554;7.844;2022-07-23T10:05:04;8.65;;;6.53;;
55417;SDS011;41287;47.554;7.844;2022-07-23T10:07:33;10.20;;;6.32;;
55417;SDS011;41287;47.554;7.844;2022-07-23T10:10:02;9.88;;;6.70;;
55417;SDS011;41287;47.554;7.844;2022-07-23T10:12:29;9.13;;;6.93;;
55417;SDS011;41287;47.554;7.844;2022-07-23T10:15:03;9.65;;;6.53;;
55417;SDS011;41287;47.554;7.844;2022-07-23T10:17:34;11.13;;;6.43;;
55417;SDS011;41287;47.554;7.844;2022-07-23T10:20:00;9.48;;;6.90;;
55417;SDS011;41287;47.554;7.844;2022-07-23T10:22:28;8.93;;;6.30;;
55417;SDS011;41287;47.554;7.844;2022-07-23T10:25:08;8.93;;;6.32;;
55417;SDS011;41287;47.554;7.844;2022-07-23T10:36:02;8.98;;;6.60;;
55417;SDS011;41287;47.554;7.844;2022-07-23T10:38:51;11.10;;;6.82;;
55417;SDS011;41287;47.554;7.844;2022-07-23T10:41:33;7.80;;;6.05;;
55417;SDS011;41287;47.554;7.844;2022-07-23T10:44:05;8.85;;;6.65;;
55417;SDS011;41287;47.554;7.844;2022-07-23T10:46:32;8.95;;;6.50;;
55417;SDS011;41287;47.554;7.844;2022-07-23T10:49:35;9.27;;;6.38;;
55417;SDS011;41287;47.554;7.844;2022-07-23T10:54:39;10.00;;;6.97;;
55417;SDS011;41287;47.554;7.844;2022-07-23T10:57:16;9.98;;;6.95;;
55417;SDS011;41287;47.554;7.844;2022-07-23T11:02:32;9.52;;;6.38;;
55417;SDS011;41287;47.554;7.844;2022-07-23T11:04:59;10.88;;;6.57;;
55417;SDS011;41287;47.554;7.844;2022-07-23T11:07:26;8.10;;;5.88;;
55417;SDS011;41287;47.554;7.844;2022-07-23T11:09:51;8.30;;;6.22;;
55417;SDS011;41287;47.554;7.844;2022-07-23T11:25:08;9.15;;;6.38;;
55417;SDS011;41287;47.554;7.844;2022-07-23T11:27:41;9.57;;;6.47;;
55417;SDS011;41287;47.554;7.844;2022-07-23T11:30:11;9.38;;;6.35;;
55417;SDS011;41287;47.554;7.844;2022-07-23T11:35:44;9.02;;;6.20;;
55417;SDS011;41287;47.554;7.844;2022-07-23T11:38:18;11.02;;;5.78;;
55417;SDS011;41287;47.554;7.844;2022-07-23T11:40:47;12.25;;;6.53;;
55417;SDS011;41287;47.554;7.844;2022-07-23T11:43:15;9.48;;;6.65;;
55417;SDS011;41287;47.554;7.844;2022-07-23T11:45:44;9.02;;;6.13;;
55417;SDS011;41287;47.554;7.844;2022-07-23T11:50:43;9.60;;;6.32;;
55417;SDS011;41287;47.554;7.844;2022-07-23T11:56:10;8.23;;;6.03;;
55417;SDS011;41287;47.554;7.844;2022-07-23T11:58:37;10.02;;;6.20;;
55417;SDS011;41287;47.554;7.844;2022-07-23T12:01:04;9.70;;;6.53;;
55417;SDS011;41287;47.554;7.844;2022-07-23T12:03:30;10.50;;;6.90;;
55417;SDS011;41287;47.554;7.844;2022-07-23T12:05:56;9.13;;;6.45;;
55417;SDS011;41287;47.554;7.844;2022-07-23T12:08:23;10.43;;;6.60;;
55417;SDS011;41287;47.554;7.844;2022-07-23T12:10:48;11.60;;;6.88;;
55417;SDS011;41287;47.554;7.844;2022-07-23T12:13:18;9.82;;;6.43;;
55417;SDS011;41287;47.554;7.844;2022-07-23T12:18:13;12.10;;;7.03;;
55417;SDS011;41287;47.554;7.844;2022-07-23T12:20:46;11.25;;;6.95;;
55417;SDS011;41287;47.554;7.844;2022-07-23T12:23:14;10.30;;;6.68;;
55417;SDS011;41287;47.554;7.844;2022-07-23T12:25:42;10.00;;;6.93;;
55417;SDS011;41287;47.554;7.844;2022-07-23T12:30:48;11.57;;;7.07;;
55417;SDS011;41287;47.554;7.844;2022-07-23T12:35:54;10.73;;;6.70;;
55417;SDS011;41287;47.554;7.844;2022-07-23T12:38:23;11.00;;;6.85;;
55417;SDS011;41287;47.554;7.844;2022-07-23T12:43:24;12.52;;;7.35;;
55417;SDS011;41287;47.554;7.844;2022-07-23T12:50:50;11.88;;;7.05;;
55417;SDS011;41287;47.554;7.844;2022-07-23T12:53:24;9.93;;;7.15;;
55417;SDS011;41287;47.554;7.844;2022-07-23T12:55:50;12.55;;;7.50;;
55417;SDS011;41287;47.554;7.844;2022-07-23T12:58:24;11.02;;;7.57;;
55417;SDS011;41287;47.554;7.844;2022-07-23T13:03:23;10.68;;;7.30;;
55417;SDS011;41287;47.554;7.844;2022-07-23T13:05:52;11.02;;;7.40;;
55417;SDS011;41287;47.554;7.844;2022-07-23T13:08:18;10.45;;;7.68;;
55417;SDS011;41287;47.554;7.844;2022-07-23T13:10:43;12.77;;;7.72;;
55417;SDS011;41287;47.554;7.844;2022-07-23T13:13:12;11.35;;;7.72;;
55417;SDS011;41287;47.554;7.844;2022-07-23T13:15:38;10.23;;;7.05;;
55417;SDS011;41287;47.554;7.844;2022-07-23T13:18:03;10.57;;;7.13;;
55417;SDS011;41287;47.554;7.844;2022-07-23T13:20:28;11.45;;;7.70;;
55417;SDS011;41287;47.554;7.844;2022-07-23T13:22:56;11.88;;;7.70;;
55417;SDS011;41287;47.554;7.844;2022-07-23T13:25:22;13.88;;;8.85;;
55417;SDS011;41287;47.554;7.844;2022-07-23T13:27:47;11.52;;;7.68;;
55417;SDS011;41287;47.554;7.844;2022-07-23T13:30:12;10.70;;;7.47;;
55417;SDS011;41287;47.554;7.844;2022-07-23T13:32:38;12.88;;;7.55;;
55417;SDS011;41287;47.554;7.844;2022-07-23T13:35:03;10.10;;;7.50;;
55417;SDS011;41287;47.554;7.844;2022-07-23T13:37:29;11.55;;;7.93;;
55417;SDS011;41287;47.554;7.844;2022-07-23T13:39:54;10.23;;;7.50;;
55417;SDS011;41287;47.554;7.844;2022-07-23T13:42:20;11.00;;;7.40;;
55417;SDS011;41287;47.554;7.844;2022-07-23T13:44:45;11.45;;;7.43;;
55417;SDS011;41287;47.554;7.844;2022-07-23T13:47:11;10.85;;;7.00;;
55417;SDS011;41287;47.554;7.844;2022-07-23T13:49:36;9.48;;;7.05;;
55417;SDS011;41287;47.554;7.844;2022-07-23T13:52:02;10.93;;;7.72;;
55417;SDS011;41287;47.554;7.844;2022-07-23T13:54:29;9.65;;;7.25;;
55417;SDS011;41287;47.554;7.844;2022-07-23T13:56:56;12.30;;;7.63;;
55417;SDS011;41287;47.554;7.844;2022-07-23T13:59:21;11.13;;;7.47;;
55417;SDS011;41287;47.554;7.844;2022-07-23T14:01:47;9.13;;;7.20;;
55417;SDS011;41287;47.554;7.844;2022-07-23T14:04:12;10.77;;;6.93;;
55417;SDS011;41287;47.554;7.844;2022-07-23T14:06:38;11.35;;;8.18;;
55417;SDS011;41287;47.554;7.844;2022-07-23T14:09:03;10.75;;;7.45;;
55417;SDS011;41287;47.554;7.844;2022-07-23T14:11:28;9.55;;;7.18;;
55417;SDS011;41287;47.554;7.844;2022-07-23T14:13:55;8.23;;;5.78;;
55417;SDS011;41287;47.554;7.844;2022-07-23T14:16:21;8.82;;;5.68;;
55417;SDS011;41287;47.554;7.844;2022-07-23T14:18:47;9.05;;;5.55;;
55417;SDS011;41287;47.554;7.844;2022-07-23T14:21:12;7.28;;;5.07;;
55417;SDS011;41287;47.554;7.844;2022-07-23T14:23:38;7.80;;;5.20;;
55417;SDS011;41287;47.554;7.844;2022-07-23T14:26:03;6.68;;;4.95;;
55417;SDS011;41287;47.554;7.844;2022-07-23T14:28:29;7.38;;;5.25;;
55417;SDS011;41287;47.554;7.844;2022-07-23T14:30:54;8.20;;;5.35;;
55417;SDS011;41287;47.554;7.844;2022-07-23T14:33:19;5.97;;;4.72;;
55417;SDS011;41287;47.554;7.844;2022-07-23T14:35:45;7.85;;;4.97;;
55417;SDS011;41287;47.554;7.844;2022-07-23T14:38:11;8.15;;;5.35;;
55417;SDS011;41287;47.554;7.844;2022-07-23T14:40:36;9.05;;;5.57;;
55417;SDS011;41287;47.554;7.844;2022-07-23T14:43:02;6.95;;;5.63;;
55417;SDS011;41287;47.554;7.844;2022-07-23T14:45:27;9.70;;;6.18;;
55417;SDS011;41287;47.554;7.844;2022-07-23T14:47:55;7.75;;;5.68;;
55417;SDS011;41287;47.554;7.844;2022-07-23T14:50:20;8.80;;;5.90;;
55417;SDS011;41287;47.554;7.844;2022-07-23T14:52:48;11.45;;;6.28;;
55417;SDS011;41287;47.554;7.844;2022-07-23T14:55:13;8.85;;;6.10;;
55417;SDS011;41287;47.554;7.844;2022-07-23T14:57:38;9.07;;;5.97;;
55417;SDS011;41287;47.554;7.844;2022-07-23T15:00:04;8.20;;;5.88;;
55417;SDS011;41287;47.554;7.844;2022-07-23T15:02:31;8.10;;;6.28;;
55417;SDS011;41287;47.554;7.844;2022-07-23T15:04:58;10.20;;;6.82;;
55417;SDS011;41287;47.554;7.844;2022-07-23T15:07:26;10.50;;;5.95;;
55417;SDS011;41287;47.554;7.844;2022-07-23T15:09:55;7.85;;;6.05;;
55417;SDS011;41287;47.554;7.844;2022-07-23T15:12:23;9.68;;;6.25;;
55417;SDS011;41287;47.554;7.844;2022-07-23T15:14:48;11.35;;;6.57;;
55417;SDS011;41287;47.554;7.844;2022-07-23T15:17:16;8.73;;;5.97;;
55417;SDS011;41287;47.554;7.844;2022-07-23T15:19:41;9.20;;;6.20;;
55417;SDS011;41287;47.554;7.844;2022-07-23T15:22:07;8.52;;;5.32;;
55417;SDS011;41287;47.554;7.844;2022-07-23T15:24:32;8.82;;;5.63;;
55417;SDS011;41287;47.554;7.844;2022-07-23T15:26:58;8.70;;;5.88;;
55417;SDS011;41287;47.554;7.844;2022-07-23T15:29:24;10.45;;;6.80;;
55417;SDS011;41287;47.554;7.844;2022-07-23T15:31:49;9.48;;;6.47;;
55417;SDS011;41287;47.554;7.844;2022-07-23T15:34:15;8.48;;;5.95;;
55417;SDS011;41287;47.554;7.844;2022-07-23T15:36:40;8.18;;;5.47;;
55417;SDS011;41287;47.554;7.844;2022-07-23T15:39:06;8.20;;;5.53;;
55417;SDS011;41287;47.554;7.844;2022-07-23T15:41:31;8.23;;;5.68;;